Time;durP1;ratioP1;P1;durP2;ratioP2;P2;SDS_P1;SDS_P2;PMS_P1;PMS_P2;Temp;Humidity;BMP_temperature;BMP_pressure;BME280_temperature;BME280_humidity;BME280_pressure;Samples;Min_cycle;Max_cycle;Signal;HPM_P1;HPM_P2
2021/12/22 00:00:15;;;;;;;;;48.75;43.00;;;;;1.59;67.12;102209.75;5052058;28;49822;-70
2021/12/22 00:02:46;;;;;;;;;50.75;44.75;;;;;1.66;67.13;102214.66;5050829;28;50148;-70
2021/12/22 00:05:19;;;;;;;;;48.25;43.00;;;;;1.70;66.71;102232.22;5052504;28;49865;-69
2021/12/22 00:07:44;;;;;;;;;66.00;51.00;;;;;1.62;66.90;102217.75;5052096;28;50499;-69
2021/12/22 00:10:10;;;;;;;;;59.25;46.50;;;;;1.81;67.03;102242.53;5050890;28;49643;-70
2021/12/22 00:12:35;;;;;;;;;45.50;40.50;;;;;1.52;66.51;102194.50;5051848;28;50160;-69
2021/12/22 00:15:01;;;;;;;;;50.75;45.00;;;;;1.05;67.01;102123.44;5052296;28;49705;-70
2021/12/22 00:17:26;;;;;;;;;49.75;44.75;;;;;1.78;66.48;102237.09;5051843;28;50539;-69
2021/12/22 00:19:52;;;;;;;;;54.75;45.50;;;;;1.78;66.79;102235.41;5052173;28;50052;-69
2021/12/22 00:22:17;;;;;;;;;58.00;47.67;;;;;1.77;66.76;102238.78;5052141;28;49733;-69
2021/12/22 00:24:42;;;;;;;;;51.75;46.50;;;;;1.52;66.75;102199.69;5052069;28;49979;-69
2021/12/22 00:27:08;;;;;;;;;54.00;45.50;;;;;1.77;67.11;102238.78;5051539;28;50509;-70
2021/12/22 00:29:33;;;;;;;;;58.00;45.25;;;;;1.77;67.04;102235.31;5051660;28;49567;-69
2021/12/22 00:32:10;;;;;;;;;49.75;45.00;;;;;1.63;66.83;102203.13;5051944;28;49966;-69
2021/12/22 00:34:45;;;;;;;;;57.75;47.25;;;;;1.69;66.42;102224.34;5051838;28;49826;-69
2021/12/22 00:37:11;;;;;;;;;53.00;44.25;;;;;1.59;66.89;102207.16;5051581;28;49923;-70
2021/12/22 00:39:36;;;;;;;;;60.75;49.25;;;;;1.60;66.69;102215.84;5051562;28;49627;-69
2021/12/22 00:42:01;;;;;;;;;59.00;49.33;;;;;1.65;66.85;102222.28;5051582;28;49930;-69
2021/12/22 00:44:27;;;;;;;;;55.00;45.50;;;;;1.64;67.14;102233.41;5051905;28;49955;-70
2021/12/22 00:46:52;;;;;;;;;51.25;46.00;;;;;1.64;66.89;102231.75;5051324;28;49832;-69
2021/12/22 00:49:17;;;;;;;;;63.25;49.00;;;;;1.63;67.46;102227.31;5050561;28;49830;-70
2021/12/22 00:51:43;;;;;;;;;62.25;50.00;;;;;1.38;66.60;102195.09;5051350;28;49700;-69
2021/12/22 00:54:08;;;;;;;;;58.00;49.00;;;;;1.61;67.35;102221.13;5051682;28;50096;-71
2021/12/22 00:56:37;;;;;;;;;52.25;45.25;;;;;1.54;67.46;102204.97;5051071;28;49805;-69
2021/12/22 00:59:02;;;;;;;;;64.00;51.00;;;;;1.51;67.26;102216.00;5039225;28;49927;-68
2021/12/22 01:01:27;;;;;;;;;58.25;46.50;;;;;1.54;66.90;102228.28;5051609;28;49827;-69
2021/12/22 01:03:53;;;;;;;;;63.75;47.00;;;;;1.36;67.38;102207.03;5051605;28;49815;-69
2021/12/22 01:06:18;;;;;;;;;63.00;46.50;;;;;1.38;67.30;102195.09;5051011;28;49899;-70
2021/12/22 01:08:43;;;;;;;;;53.25;45.00;;;;;1.18;67.40;102187.44;5051171;28;49798;-69
2021/12/22 01:11:09;;;;;;;;;55.00;47.50;;;;;1.55;67.01;102227.53;5050905;28;49686;-69
2021/12/22 01:13:34;;;;;;;;;57.75;47.50;;;;;1.37;67.21;102195.88;5051452;28;49796;-69
2021/12/22 01:16:00;;;;;;;;;60.25;47.50;;;;;1.57;66.99;102238.91;5051116;28;50767;-70
2021/12/22 01:18:33;;;;;;;;;50.00;45.25;;;;;1.37;66.68;102206.25;5051141;28;49790;-70
2021/12/22 01:21:14;;;;;;;;;49.25;43.75;;;;;1.55;67.21;102250.81;5050767;28;49919;-69
2021/12/22 01:23:58;;;;;;;;;51.75;47.00;;;;;0.23;66.56;102003.94;5051207;28;50385;-70
2021/12/22 01:26:23;;;;;;;;;63.00;47.75;;;;;1.54;67.42;102223.09;5050691;28;50718;-69
2021/12/22 01:28:49;;;;;;;;;58.75;45.00;;;;;1.53;66.88;102219.59;5050700;28;49669;-69
2021/12/22 01:31:15;;;;;;;;;51.25;44.75;;;;;1.22;67.30;102167.09;5051067;28;50603;-69
2021/12/22 01:33:40;;;;;;;;;62.25;47.50;;;;;1.26;67.20;102170.84;5051068;28;49990;-70
2021/12/22 01:36:06;;;;;;;;;55.75;47.00;;;;;1.45;67.71;102207.75;5050782;28;49754;-69
2021/12/22 01:38:31;;;;;;;;;50.75;46.00;;;;;1.12;67.86;102160.28;5050902;28;49869;-69
2021/12/22 01:40:57;;;;;;;;;53.00;44.00;;;;;1.36;67.82;102184.63;5050435;28;49856;-70
2021/12/22 01:43:22;;;;;;;;;59.25;49.50;;;;;1.39;67.28;102197.81;5052415;28;50116;-69
2021/12/22 01:51:28;;;;;;;;;62.00;48.25;;;;;1.38;67.30;102184.75;5050753;28;49848;-69
2021/12/22 01:53:59;;;;;;;;;62.50;50.75;;;;;1.41;68.12;102213.47;5050841;28;49975;-69
2021/12/22 01:56:27;;;;;;;;;50.25;43.50;;;;;0.85;67.50;102138.25;5050277;28;50364;-69
2021/12/22 01:58:57;;;;;;;;;51.50;45.00;;;;;1.30;68.22;102217.78;5050367;28;50191;-69
2021/12/22 02:01:24;;;;;;;;;58.00;47.75;;;;;1.15;68.51;102186.38;5050444;28;49698;-69
2021/12/22 02:03:51;;;;;;;;;65.00;51.00;;;;;0.94;68.37;102156.19;5050578;28;50022;-70
2021/12/22 02:06:17;;;;;;;;;47.50;42.25;;;;;1.32;67.99;102211.03;5050225;28;52697;-69
2021/12/22 02:08:44;;;;;;;;;56.00;45.50;;;;;1.27;68.33;102201.09;5049097;28;49830;-69
2021/12/22 02:11:11;;;;;;;;;54.75;47.00;;;;;1.33;68.07;102202.47;5050237;28;49853;-69
2021/12/22 02:13:40;;;;;;;;;51.25;42.75;;;;;1.29;68.42;102203.03;5050568;28;49845;-69
2021/12/22 02:16:11;;;;;;;;;59.75;49.25;;;;;1.26;68.29;102199.31;5048824;28;51867;-70
2021/12/22 02:18:47;;;;;;;;;56.00;47.50;;;;;1.04;68.67;102171.66;5050237;28;49912;-69
2021/12/22 02:21:13;;;;;;;;;57.50;48.50;;;;;1.11;68.85;102184.34;5050335;28;49765;-69
2021/12/22 02:23:40;;;;;;;;;63.50;49.75;;;;;1.24;68.46;102204.31;5037055;28;49624;-69
2021/12/22 02:26:20;;;;;;;;;58.50;47.25;;;;;1.10;68.48;102186.81;5049865;28;49884;-69
2021/12/22 02:28:49;;;;;;;;;53.75;47.00;;;;;1.13;68.66;102197.38;5049969;28;49982;-69
2021/12/22 02:31:19;;;;;;;;;54.00;44.75;;;;;1.20;68.73;102203.97;5050288;28;49902;-70
2021/12/22 02:33:48;;;;;;;;;51.50;42.50;;;;;1.12;68.90;102193.00;5052513;28;49895;-69
2021/12/22 02:38:52;;;;;;;;;51.00;44.25;;;;;1.13;69.17;102203.47;5053673;28;49790;-70
2021/12/22 02:41:21;;;;;;;;;45.25;37.00;;;;;1.22;69.08;102210.16;5053393;28;49799;-71
2021/12/22 02:43:49;;;;;;;;;61.67;47.00;;;;;1.18;68.82;102203.84;5053838;28;49723;-69
2021/12/22 02:46:18;;;;;;;;;64.00;46.50;;;;;1.18;68.70;102213.28;5053288;28;50868;-69
2021/12/22 02:48:44;;;;;;;;;54.50;42.50;;;;;1.15;68.52;102209.66;5053411;28;49876;-69
2021/12/22 02:51:10;;;;;;;;;47.50;38.25;;;;;1.12;68.81;102205.94;5053345;28;49777;-69
2021/12/22 02:53:43;;;;;;;;;47.00;40.25;;;;;1.10;69.27;102204.91;5053628;28;50034;-69
2021/12/22 03:01:50;;;;;;;;;51.75;45.50;;;;;1.07;69.18;102196.91;5052933;28;49826;-69
2021/12/22 03:04:14;;;;;;;;;53.00;45.25;;;;;0.78;69.82;102163.50;5053428;28;51061;-71
2021/12/22 03:06:55;;;;;;;;;57.50;44.75;;;;;0.99;70.01;102201.44;5053043;28;51027;-70
2021/12/22 03:09:22;;;;;;;;;61.75;47.75;;;;;0.95;69.89;102186.44;5053216;28;49858;-69
2021/12/22 03:11:50;;;;;;;;;60.00;45.75;;;;;1.06;69.78;102185.66;5052809;28;49730;-69
2021/12/22 03:14:16;;;;;;;;;59.75;44.00;;;;;0.88;69.80;102162.56;5053300;28;49787;-70
2021/12/22 03:16:44;;;;;;;;;56.75;46.50;;;;;0.81;69.76;102135.31;5052991;28;49751;-70
2021/12/22 03:19:13;;;;;;;;;52.00;43.25;;;;;0.92;69.70;102151.69;5052994;28;49688;-70
2021/12/22 03:21:41;;;;;;;;;53.50;42.50;;;;;1.20;69.50;102193.63;5053086;28;49807;-69
2021/12/22 03:24:06;;;;;;;;;54.25;45.25;;;;;1.22;69.42;102192.97;5053092;28;49967;-69
2021/12/22 03:26:32;;;;;;;;;54.50;46.75;;;;;0.94;69.46;102127.75;5052515;28;50682;-69
2021/12/22 03:28:57;;;;;;;;;63.25;44.00;;;;;1.33;69.07;102192.13;5052662;28;49958;-69
2021/12/22 03:31:23;;;;;;;;;54.00;45.75;;;;;1.12;69.25;102159.38;5052832;28;49905;-69
2021/12/22 03:33:48;;;;;;;;;44.50;39.75;;;;;1.43;68.59;102198.94;5052995;28;49717;-69
2021/12/22 03:36:13;;;;;;;;;56.50;41.00;;;;;1.36;68.41;102184.63;5052397;28;50233;-69
2021/12/22 03:38:39;;;;;;;;;47.50;41.00;;;;;1.21;67.54;102159.22;5051451;28;49852;-70
2021/12/22 03:41:07;;;;;;;;;57.25;47.00;;;;;1.12;67.83;102162.84;5052541;28;49815;-69
2021/12/22 03:43:32;;;;;;;;;50.75;42.25;;;;;1.24;68.05;102185.31;5052642;28;50141;-69
2021/12/22 03:45:57;;;;;;;;;50.50;42.75;;;;;1.22;68.33;102205.00;5052351;28;50781;-70
2021/12/22 03:48:25;;;;;;;;;45.50;42.50;;;;;1.00;68.54;102172.22;5052560;28;49783;-70
2021/12/22 03:50:50;;;;;;;;;54.50;43.50;;;;;1.01;68.32;102162.78;5052511;28;49916;-69
2021/12/22 03:53:16;;;;;;;;;51.50;40.25;;;;;1.23;68.19;102206.78;5052565;28;49819;-69
2021/12/22 03:55:41;;;;;;;;;50.75;42.25;;;;;1.28;68.60;102205.50;5052146;28;50323;-70
2021/12/22 03:58:07;;;;;;;;;51.33;46.33;;;;;1.18;68.41;102182.25;5052589;28;49621;-69
2021/12/22 04:00:34;;;;;;;;;57.75;45.25;;;;;1.04;68.50;102143.22;5052286;28;50075;-69
2021/12/22 04:03:01;;;;;;;;;53.75;45.25;;;;;1.36;68.86;102188.91;5052613;28;50007;-70
2021/12/22 04:05:27;;;;;;;;;54.75;44.75;;;;;1.34;68.27;102186.19;5052133;28;49986;-69
2021/12/22 04:07:54;;;;;;;;;50.75;42.50;;;;;1.07;69.20;102133.16;5052012;28;50191;-70
2021/12/22 04:10:20;;;;;;;;;56.75;48.50;;;;;1.41;67.99;102180.72;5050856;28;49998;-69
2021/12/22 04:12:50;;;;;;;;;52.00;45.00;;;;;1.33;68.13;102155.00;5052258;28;49606;-69
2021/12/22 04:15:15;;;;;;;;;56.50;43.75;;;;;1.11;68.41;102119.66;5051959;28;49856;-69
2021/12/22 04:17:41;;;;;;;;;58.25;44.25;;;;;1.33;67.63;102147.25;5052219;28;49765;-69
2021/12/22 04:20:07;;;;;;;;;55.25;42.00;;;;;1.42;68.30;102151.47;5051961;28;50118;-69
2021/12/22 04:22:32;;;;;;;;;57.67;47.33;;;;;1.44;67.92;102156.75;5052371;28;49943;-70
2021/12/22 04:24:57;;;;;;;;;46.75;42.75;;;;;1.64;67.96;102179.03;5050342;28;51514;-70
2021/12/22 04:27:23;;;;;;;;;55.50;47.00;;;;;1.49;67.30;102155.47;5051497;28;49696;-70
2021/12/22 04:29:48;;;;;;;;;58.67;45.67;;;;;1.70;67.65;102176.94;5052108;28;50022;-69
2021/12/22 04:32:13;;;;;;;;;40.75;34.25;;;;;1.39;67.57;102127.06;5052117;28;49696;-69
2021/12/22 04:34:39;;;;;;;;;49.00;41.50;;;;;1.80;67.81;102181.16;5050291;28;50380;-69
2021/12/22 04:37:04;;;;;;;;;56.50;44.50;;;;;1.68;67.07;102158.72;5054547;28;49970;-69
2021/12/22 04:39:32;;;;;;;;;55.25;43.50;;;;;1.88;67.08;102185.25;5051605;28;49892;-70
2021/12/22 04:41:59;;;;;;;;;57.00;45.25;;;;;1.89;67.28;102185.38;5051672;28;49843;-69
2021/12/22 04:44:24;;;;;;;;;51.50;46.25;;;;;1.95;67.01;102188.47;5051374;28;49860;-69
2021/12/22 04:46:49;;;;;;;;;49.00;42.00;;;;;1.82;66.46;102159.78;5051750;28;49889;-69
2021/12/22 04:49:15;;;;;;;;;53.00;44.25;;;;;1.73;65.84;102138.34;5051814;28;49939;-69
2021/12/22 04:51:48;;;;;;;;;51.50;43.50;;;;;1.75;66.43;102141.09;5051667;28;50163;-69
2021/12/22 04:56:55;;;;;;;;;60.25;48.50;;;;;1.89;66.01;102162.06;5050682;28;49682;-69
2021/12/22 04:59:21;;;;;;;;;50.50;42.00;;;;;2.03;66.12;102186.47;5051425;28;49713;-69
2021/12/22 05:01:46;;;;;;;;;52.50;44.75;;;;;1.88;66.38;102147.31;5051490;28;49688;-69
2021/12/22 05:04:11;;;;;;;;;55.00;45.25;;;;;1.71;66.45;102119.22;5051214;28;49890;-69
2021/12/22 05:06:37;;;;;;;;;57.75;45.00;;;;;1.81;66.46;102126.00;5050098;28;49712;-69
2021/12/22 05:09:04;;;;;;;;;50.75;41.50;;;;;1.80;65.80;102144.91;5051343;28;49748;-69
2021/12/22 05:11:30;;;;;;;;;64.50;46.75;;;;;1.88;66.45;102164.53;5051310;28;50039;-69
2021/12/22 05:13:56;;;;;;;;;46.50;39.00;;;;;1.75;66.53;102159.19;5051014;28;50175;-69
2021/12/22 05:16:21;;;;;;;;;61.25;44.25;;;;;1.76;65.97;102159.31;5049717;28;49751;-69
2021/12/22 05:18:55;;;;;;;;;47.00;44.00;;;;;1.72;66.68;102158.16;5051288;28;50317;-69
2021/12/22 05:21:22;;;;;;;;;44.25;37.00;;;;;1.62;66.32;102160.81;5040286;28;49686;-69
2021/12/22 05:23:53;;;;;;;;;49.50;40.25;;;;;1.18;66.65;102089.13;5049580;28;51401;-69
2021/12/22 05:26:19;;;;;;;;;56.50;47.00;;;;;1.59;65.72;102162.25;5050843;28;50013;-69
2021/12/22 05:28:45;;;;;;;;;61.50;47.50;;;;;0.94;65.83;102062.22;5051015;28;49823;-69
2021/12/22 05:31:10;;;;;;;;;48.00;43.25;;;;;1.25;66.46;102151.81;5051004;28;49748;-69
2021/12/22 05:33:36;;;;;;;;;54.00;46.00;;;;;1.31;66.26;102157.47;5050741;28;49763;-69
2021/12/22 05:36:01;;;;;;;;;48.25;43.75;;;;;1.35;66.61;102161.19;5051010;28;49673;-69
2021/12/22 05:38:26;;;;;;;;;61.00;46.25;;;;;1.21;66.66;102147.19;5050750;28;49709;-70
2021/12/22 05:40:52;;;;;;;;;58.75;49.25;;;;;1.37;67.05;102172.59;5050691;28;49968;-70
2021/12/22 05:43:17;;;;;;;;;50.00;45.50;;;;;1.26;67.01;102143.28;5050450;28;49718;-69
2021/12/22 05:45:43;;;;;;;;;47.00;44.00;;;;;1.32;66.63;102155.78;5050623;28;49829;-69
2021/12/22 05:48:09;;;;;;;;;26.50;20.75;;;;;1.26;67.09;102161.41;5050817;28;49755;-69
2021/12/22 05:50:34;;;;;;;;;63.00;49.00;;;;;1.23;66.89;102152.47;5050846;28;49755;-69
2021/12/22 05:52:59;;;;;;;;;50.25;43.75;;;;;1.35;66.81;102167.31;5050513;28;50909;-69
2021/12/22 05:55:25;;;;;;;;;64.50;47.00;;;;;1.08;66.59;102122.03;5050129;28;49705;-69
2021/12/22 05:57:50;;;;;;;;;47.00;37.25;;;;;1.38;66.23;102170.13;5050627;28;49965;-69
2021/12/22 06:00:16;;;;;;;;;51.00;45.75;;;;;1.00;66.68;102112.75;5050506;28;49961;-71
2021/12/22 06:02:42;;;;;;;;;49.00;43.25;;;;;1.43;67.00;102181.72;5050333;28;51401;-70
2021/12/22 06:05:08;;;;;;;;;47.50;43.25;;;;;1.48;66.36;102179.53;5050424;28;49807;-69
2021/12/22 06:07:33;;;;;;;;;42.50;37.50;;;;;1.08;66.41;102110.78;5047859;28;49806;-69
2021/12/22 06:09:58;;;;;;;;;50.50;43.00;;;;;1.02;66.55;102084.41;5050557;28;49896;-70
2021/12/22 06:12:24;;;;;;;;;57.00;47.25;;;;;1.46;66.61;102150.03;5049826;28;49784;-70
2021/12/22 06:14:49;;;;;;;;;50.75;44.00;;;;;1.57;66.84;102169.00;5050324;28;49904;-69
2021/12/22 06:17:15;;;;;;;;;49.75;44.00;;;;;1.53;66.65;102167.84;5050199;28;49985;-69
2021/12/22 06:19:40;;;;;;;;;53.50;40.75;;;;;1.52;66.56;102147.03;5049064;28;49980;-69
2021/12/22 06:22:05;;;;;;;;;51.50;44.25;;;;;1.46;66.36;102119.00;5050132;28;50604;-69
2021/12/22 06:24:31;;;;;;;;;58.75;45.25;;;;;1.63;66.49;102138.41;5050329;28;49835;-71
2021/12/22 06:26:57;;;;;;;;;58.75;44.75;;;;;1.68;66.71;102140.59;5050026;28;49961;-70
2021/12/22 06:29:23;;;;;;;;;58.25;45.00;;;;;1.62;65.79;102124.56;5050047;28;49923;-70
2021/12/22 06:31:49;;;;;;;;;42.50;37.75;;;;;1.93;65.77;102173.56;5050097;28;49802;-70
2021/12/22 06:34:14;;;;;;;;;55.75;44.00;;;;;1.67;65.90;102118.06;5049907;28;49677;-70
2021/12/22 06:36:40;;;;;;;;;47.75;42.00;;;;;1.77;65.50;102127.47;5050003;28;49658;-70
2021/12/22 06:39:06;;;;;;;;;47.25;38.50;;;;;1.70;65.82;102118.31;5050116;28;49606;-69
2021/12/22 06:41:32;;;;;;;;;65.00;45.25;;;;;1.46;65.32;102066.34;5048279;28;52735;-69
2021/12/22 06:43:57;;;;;;;;;53.25;47.00;;;;;1.93;65.53;102168.38;5049825;28;49781;-70
2021/12/22 06:46:22;;;;;;;;;47.50;40.50;;;;;2.02;64.97;102195.00;5048841;28;50041;-69
2021/12/22 06:48:48;;;;;;;;;53.00;45.25;;;;;1.69;65.30;102139.81;5050075;28;50426;-69
2021/12/22 06:51:13;;;;;;;;;50.50;42.25;;;;;1.98;64.92;102182.59;5049676;28;50120;-70
2021/12/22 06:53:39;;;;;;;;;60.25;40.25;;;;;2.04;64.23;102189.97;5048547;28;49618;-71
2021/12/22 06:56:04;;;;;;;;;64.00;49.50;;;;;1.80;64.98;102161.34;5049786;28;50497;-69
2021/12/22 06:58:30;;;;;;;;;49.00;44.25;;;;;1.85;64.19;102192.81;5050083;28;49750;-69
2021/12/22 07:00:56;;;;;;;;;58.00;42.50;;;;;1.49;64.96;102141.63;5049468;28;50419;-69
2021/12/22 07:03:21;;;;;;;;;46.00;41.50;;;;;1.55;65.17;102150.78;5048219;28;49805;-69
2021/12/22 07:05:46;;;;;;;;;56.75;45.50;;;;;1.48;65.07;102145.88;5044241;28;49936;-68
2021/12/22 07:08:12;;;;;;;;;41.00;37.50;;;;;1.70;64.57;102172.66;5041869;28;49747;-69
2021/12/22 07:10:37;;;;;;;;;54.00;47.00;;;;;1.68;65.38;102179.41;5044051;28;50872;-69
2021/12/22 07:13:03;;;;;;;;;47.00;41.25;;;;;1.41;65.64;102160.03;5049454;28;49802;-73
2021/12/22 07:15:31;;;;;;;;;47.50;39.50;;;;;0.95;65.55;102075.25;5051472;28;49856;-82
2021/12/22 07:17:57;;;;;;;;;50.25;43.50;;;;;1.07;65.01;102098.63;5041956;28;49965;-79
2021/12/22 07:20:23;;;;;;;;;54.50;46.00;;;;;-0.10;65.49;101910.03;5040811;28;52314;-83
2021/12/22 07:22:49;;;;;;;;;52.75;41.50;;;;;1.38;65.22;102180.47;5056947;28;49935;-84
2021/12/22 07:25:18;;;;;;;;;43.50;42.00;;;;;0.69;65.92;102093.84;5045759;28;49713;-77
2021/12/22 07:27:45;;;;;;;;;57.50;47.00;;;;;0.11;65.86;102001.25;5043356;28;49819;-79
2021/12/22 07:30:11;;;;;;;;;56.00;45.00;;;;;0.18;65.83;102003.53;5050760;28;51101;-76
2021/12/22 07:32:37;;;;;;;;;43.00;36.00;;;;;0.32;66.09;102056.34;5047897;28;50033;-77
2021/12/22 07:35:09;;;;;;;;;55.50;46.00;;;;;-0.02;66.54;102006.16;5043702;28;49892;-77
2021/12/22 07:37:47;;;;;;;;;49.50;44.25;;;;;1.14;66.50;102178.50;5050421;28;49846;-80
2021/12/22 07:40:17;;;;;;;;;60.75;48.00;;;;;0.02;66.58;101968.63;5047120;28;50120;-77
2021/12/22 07:42:43;;;;;;;;;57.75;45.50;;;;;1.25;66.74;102175.09;5052083;28;49628;-80
2021/12/22 07:45:09;;;;;;;;;56.75;47.25;;;;;0.89;66.67;102135.94;5055311;28;49926;-80
2021/12/22 07:47:35;;;;;;;;;55.00;44.50;;;;;0.11;66.67;101964.22;5056333;28;49641;-83
2021/12/22 07:50:05;;;;;;;;;69.25;48.00;;;;;1.36;66.39;102188.91;5043797;28;52112;-78
2021/12/22 07:52:30;;;;;;;;;54.00;47.00;;;;;1.27;66.38;102176.13;5038881;28;49782;-79
2021/12/22 07:54:56;;;;;;;;;56.00;45.00;;;;;1.37;66.97;102199.38;5052326;28;49956;-79
2021/12/22 07:57:22;;;;;;;;;49.75;43.25;;;;;1.40;66.48;102188.38;5046812;28;49981;-76
2021/12/22 07:59:48;;;;;;;;;70.00;45.75;;;;;1.22;65.85;102161.00;5051939;28;50513;-80
2021/12/22 08:02:13;;;;;;;;;57.00;47.33;;;;;-0.32;66.07;101909.94;5047266;28;49725;-78
2021/12/22 08:04:39;;;;;;;;;57.25;46.25;;;;;1.50;65.49;102195.19;5044175;28;49795;-78
2021/12/22 08:07:05;;;;;;;;;59.00;45.00;;;;;1.31;65.68;102183.34;5044913;28;49869;-81
2021/12/22 08:09:30;;;;;;;;;50.50;45.00;;;;;1.51;65.25;102187.53;5036424;28;50981;-78
2021/12/22 08:12:04;;;;;;;;;52.50;45.50;;;;;0.84;65.27;102064.06;5047030;28;49889;-75
2021/12/22 08:14:32;;;;;;;;;67.00;50.00;;;;;1.52;65.22;102186.75;5052118;28;50090;-77
2021/12/22 08:16:58;;;;;;;;;47.75;42.50;;;;;-0.15;65.39;101938.84;5045736;28;50010;-76
2021/12/22 08:19:23;;;;;;;;;57.75;47.25;;;;;1.49;65.51;102172.66;5049880;28;51067;-76
2021/12/22 08:21:49;;;;;;;;;64.50;50.00;;;;;0.44;65.20;101995.34;5051543;28;49570;-76
2021/12/22 08:24:14;;;;;;;;;56.75;47.25;;;;;1.53;65.38;102159.19;5051934;28;50472;-77
2021/12/22 08:26:40;;;;;;;;;48.50;40.75;;;;;1.59;64.72;102176.09;5043772;28;49798;-77
2021/12/22 08:29:06;;;;;;;;;60.50;48.50;;;;;1.04;64.84;102098.34;5051316;28;49782;-78
2021/12/22 08:31:31;;;;;;;;;64.25;49.75;;;;;1.43;64.61;102129.97;5050733;28;49696;-78
2021/12/22 08:33:57;;;;;;;;;52.50;43.50;;;;;1.46;64.63;102115.50;5051209;28;49884;-80
2021/12/22 08:39:12;;;;;;;;;66.00;47.50;;;;;1.89;64.96;102171.53;5047334;28;49850;-76
2021/12/22 08:41:40;;;;;;;;;55.50;45.25;;;;;1.84;65.03;102178.94;5050417;28;49993;-75
2021/12/22 08:44:08;;;;;;;;;67.25;51.50;;;;;0.74;64.70;102003.75;5051309;28;49982;-75
2021/12/22 08:46:37;;;;;;;;;55.00;47.00;;;;;1.42;64.47;102104.00;5051499;28;49733;-74
2021/12/22 08:49:04;;;;;;;;;45.75;42.25;;;;;1.33;64.49;102072.22;5048497;28;50751;-76
2021/12/22 08:51:30;;;;;;;;;55.00;47.50;;;;;1.90;64.93;102174.22;5041682;28;49898;-74
2021/12/22 08:53:56;;;;;;;;;66.00;50.75;;;;;1.38;64.35;102066.63;5050132;28;49775;-73
2021/12/22 08:56:22;;;;;;;;;51.00;44.75;;;;;1.90;64.11;102158.69;5050619;28;49610;-74
2021/12/22 08:58:48;;;;;;;;;57.00;46.25;;;;;1.79;64.09;102145.69;5051108;28;49846;-72
2021/12/22 09:01:13;;;;;;;;;53.75;46.00;;;;;0.33;64.58;101905.75;5050898;28;49835;-76
2021/12/22 09:03:39;;;;;;;;;55.75;43.50;;;;;1.81;64.40;102155.38;5037750;28;49878;-76
2021/12/22 09:06:04;;;;;;;;;66.75;47.25;;;;;1.39;65.71;102085.66;5039786;28;50056;-76
2021/12/22 09:08:30;;;;;;;;;62.25;49.75;;;;;1.88;64.79;102170.63;5048449;28;50740;-63
2021/12/22 09:10:56;;;;;;;;;52.25;43.25;;;;;1.94;64.84;102154.69;5043788;28;49913;-62
2021/12/22 09:13:22;;;;;;;;;62.75;47.00;;;;;2.03;64.73;102162.22;5051055;28;49834;-63
2021/12/22 09:15:48;;;;;;;;;59.00;43.25;;;;;1.82;65.00;102128.72;5051081;28;49983;-60
2021/12/22 09:18:14;;;;;;;;;50.25;44.25;;;;;1.88;64.75;102124.00;5050809;28;50729;-60
2021/12/22 09:20:39;;;;;;;;;62.25;47.75;;;;;1.95;64.26;102121.13;5044952;28;49876;-60
2021/12/22 09:23:04;;;;;;;;;63.50;49.50;;;;;2.06;63.66;102134.88;5051152;28;50148;-62
2021/12/22 09:25:30;;;;;;;;;52.00;46.00;;;;;2.23;63.82;102151.72;5044030;28;49673;-61
2021/12/22 09:27:58;;;;;;;;;68.75;51.50;;;;;2.10;63.90;102120.47;5050459;28;50379;-61
2021/12/22 09:30:23;;;;;;;;;64.75;51.25;;;;;2.38;64.38;102158.06;5050818;28;49800;-61
2021/12/22 09:32:49;;;;;;;;;59.50;43.50;;;;;2.51;64.16;102149.50;5048692;28;49722;-60
2021/12/22 09:35:14;;;;;;;;;66.00;47.25;;;;;2.24;63.67;102087.06;5047603;28;49823;-61
2021/12/22 09:37:40;;;;;;;;;55.25;45.75;;;;;2.61;62.97;102133.88;5050329;28;49983;-60
2021/12/22 09:40:06;;;;;;;;;56.75;46.25;;;;;2.79;62.19;102153.38;5050601;28;49715;-61
2021/12/22 09:42:31;;;;;;;;;54.75;46.25;;;;;2.79;63.03;102149.88;5050458;28;49653;-60
2021/12/22 09:45:00;;;;;;;;;49.25;43.25;;;;;2.91;62.33;102150.81;5048897;28;49661;-60
2021/12/22 09:47:30;;;;;;;;;59.00;44.25;;;;;2.99;61.78;102161.72;5050432;28;49978;-61
2021/12/22 09:50:23;;;;;;;;;51.25;44.75;;;;;3.02;61.59;102161.97;5048410;28;49740;-60
2021/12/22 09:52:43;;;;;;;;;53.00;43.75;;;;;3.13;61.74;102171.44;5041817;28;49990;-61
2021/12/22 09:55:09;;;;;;;;;61.25;46.25;;;;;2.80;60.34;102097.25;5043247;28;49865;-60
2021/12/22 09:57:35;;;;;;;;;58.50;44.75;;;;;3.10;61.87;102171.22;5050311;28;50027;-61
2021/12/22 10:00:02;;;;;;;;;59.75;47.50;;;;;3.26;61.53;102171.53;5050557;28;49713;-64
2021/12/22 10:02:29;;;;;;;;;48.50;44.00;;;;;3.08;60.86;102126.06;5050330;28;49825;-61
2021/12/22 10:04:59;;;;;;;;;61.50;45.25;;;;;3.15;60.43;102133.50;5050430;28;49990;-61
2021/12/22 10:07:29;;;;;;;;;65.00;50.00;;;;;3.25;60.75;102168.81;5039734;28;49889;-66
2021/12/22 10:10:04;;;;;;;;;68.75;53.50;;;;;3.13;60.72;102156.75;5049035;28;49767;-66
2021/12/22 10:12:29;;;;;;;;;60.50;49.50;;;;;2.87;60.97;102126.31;5043222;28;49872;-62
2021/12/22 10:15:00;;;;;;;;;60.75;46.75;;;;;3.08;60.73;102126.06;5050415;28;49921;-63
2021/12/22 10:17:36;;;;;;;;;67.00;49.75;;;;;3.26;60.88;102162.84;5049996;28;50383;-65
2021/12/22 10:20:08;;;;;;;;;53.00;44.25;;;;;3.20;61.24;102165.91;5049929;28;49671;-62
2021/12/22 10:22:37;;;;;;;;;57.50;46.00;;;;;3.23;60.18;102168.72;5050173;28;49672;-61
2021/12/22 10:25:09;;;;;;;;;63.75;48.50;;;;;3.13;59.97;102154.16;5041649;28;49997;-59
2021/12/22 10:27:35;;;;;;;;;52.25;45.25;;;;;3.26;60.84;102157.63;5044526;28;49891;-60
2021/12/22 10:30:19;;;;;;;;;67.75;52.25;;;;;3.35;60.68;102169.59;5046629;28;49902;-57
2021/12/22 10:32:45;;;;;;;;;61.75;50.50;;;;;3.37;60.33;102147.22;5037295;28;49942;-58
2021/12/22 10:35:10;;;;;;;;;55.25;43.75;;;;;3.58;59.90;102166.06;5050189;28;50100;-58
2021/12/22 10:37:38;;;;;;;;;52.50;46.00;;;;;3.54;59.83;102151.03;5049669;28;50626;-58
2021/12/22 10:40:23;;;;;;;;;60.75;48.50;;;;;3.66;59.97;102154.50;5035846;28;50399;-57
2021/12/22 10:42:49;;;;;;;;;62.00;48.75;;;;;3.67;59.52;102145.03;5047177;28;49866;-58
2021/12/22 10:45:15;;;;;;;;;64.25;49.25;;;;;3.71;59.55;102132.38;5047844;28;49895;-58
2021/12/22 10:50:37;;;;;;;;;58.50;49.25;;;;;3.86;59.15;102114.38;5036955;28;49924;-60
2021/12/22 10:53:04;;;;;;;;;61.25;49.75;;;;;3.78;58.37;102093.84;5059659;28;49883;-59
2021/12/22 10:55:41;;;;;;;;;64.00;47.00;;;;;3.91;58.60;102099.97;5068405;28;49525;-58
2021/12/22 10:58:30;;;;;;;;;70.25;53.75;;;;;4.04;59.03;102099.09;5053297;28;50344;-59
2021/12/22 11:01:03;;;;;;;;;62.75;46.50;;;;;4.09;58.49;102089.03;5053175;28;49840;-60
2021/12/22 11:03:44;;;;;;;;;74.50;57.25;;;;;4.23;58.94;102094.34;5052951;28;49761;-60
2021/12/22 11:06:24;;;;;;;;;65.25;46.50;;;;;4.09;57.73;102052.66;5046382;28;50153;-67
2021/12/22 11:08:58;;;;;;;;;68.50;53.25;;;;;4.26;57.65;102093.69;5050896;28;49811;-63
2021/12/22 11:11:30;;;;;;;;;61.75;44.25;;;;;4.29;58.50;102088.69;5044549;28;50199;-60
2021/12/22 11:14:01;;;;;;;;;67.75;53.00;;;;;4.39;57.92;102092.81;5049087;28;49809;-60
2021/12/22 11:16:27;;;;;;;;;61.00;49.50;;;;;4.40;56.31;102094.59;5053107;28;49698;-59
2021/12/22 11:18:52;;;;;;;;;67.75;52.00;;;;;4.25;57.52;102051.19;5059995;28;50913;-61
2021/12/22 11:21:27;;;;;;;;;64.50;54.00;;;;;4.51;57.27;102083.22;5070396;28;49159;-60
2021/12/22 11:23:53;;;;;;;;;57.25;46.75;;;;;4.41;56.83;102062.59;5053943;28;49933;-60
2021/12/22 11:26:18;;;;;;;;;59.25;48.75;;;;;4.47;56.73;102074.31;5052937;28;49947;-61
2021/12/22 11:28:44;;;;;;;;;64.50;49.75;;;;;4.36;57.15;102032.81;5051521;28;50983;-60
2021/12/22 11:31:10;;;;;;;;;69.50;50.75;;;;;4.63;56.90;102070.09;5052745;28;49765;-61
2021/12/22 11:33:39;;;;;;;;;66.75;52.00;;;;;4.66;56.55;102070.31;5052177;28;49849;-59
2021/12/22 11:36:07;;;;;;;;;63.75;54.25;;;;;4.54;56.90;102057.44;5052086;28;49716;-61
2021/12/22 11:38:33;;;;;;;;;70.25;52.50;;;;;4.49;56.51;102046.69;5051527;28;49847;-59